createdAt,value
2019-03-27T00:02:12.105Z,5.40
2019-03-27T00:05:04.197Z,5.60
2019-03-27T00:08:00.095Z,5.50
2019-03-27T00:10:53.559Z,5.40
2019-03-27T00:14:01.888Z,5.30
2019-03-27T00:16:36.431Z,5.20
2019-03-27T00:19:29.390Z,5.10
2019-03-27T00:22:04.219Z,5.00
2019-03-27T00:25:16.713Z,4.90
2019-03-27T00:27:31.562Z,4.70
2019-03-27T00:30:19.090Z,4.60
2019-03-27T00:33:02.543Z,4.50
2019-03-27T00:35:48.531Z,4.40
2019-03-27T00:38:21.430Z,4.20
2019-03-27T00:41:00.324Z,4.20
2019-03-27T00:43:36.971Z,4.10
2019-03-27T00:46:12.342Z,4.10
2019-03-27T00:48:50.466Z,4.10
2019-03-27T00:51:23.460Z,4.00
2019-03-27T00:53:54.782Z,4.10
2019-03-27T00:56:27.979Z,4.30
2019-03-27T00:59:14.894Z,4.30
2019-03-27T01:01:40.912Z,4.30
2019-03-27T01:04:16.088Z,4.40
2019-03-27T01:06:50.815Z,4.50
2019-03-27T01:09:30.021Z,4.60
2019-03-27T01:12:21.123Z,4.70
2019-03-27T01:15:15.718Z,4.80
2019-03-27T01:17:43.917Z,4.80
2019-03-27T01:20:10.880Z,4.90
2019-03-27T01:22:54.819Z,5.00
2019-03-27T01:25:30.748Z,5.10
2019-03-27T01:28:12.962Z,5.10
2019-03-27T01:31:01.693Z,5.20
2019-03-27T01:33:54.352Z,5.30
2019-03-27T01:36:43.734Z,5.30
2019-03-27T01:39:23.620Z,5.30
2019-03-27T01:41:57.695Z,5.40
2019-03-27T01:44:30.578Z,5.40
2019-03-27T01:47:04.424Z,5.50
2019-03-27T01:49:44.147Z,5.50
2019-03-27T01:52:25.347Z,5.50
2019-03-27T01:54:56.672Z,5.50
2019-03-27T01:57:28.131Z,5.50
2019-03-27T02:00:02.855Z,5.50
2019-03-27T02:02:43.480Z,5.50
2019-03-27T02:05:32.447Z,5.50
2019-03-27T02:08:26.087Z,5.40
2019-03-27T02:11:17.911Z,5.40
2019-03-27T02:14:14.578Z,5.40
2019-03-27T02:17:02.557Z,5.30
2019-03-27T02:19:54.463Z,5.10
2019-03-27T02:22:15.324Z,5.10
2019-03-27T02:25:07.205Z,5.00
2019-03-27T02:27:38.376Z,4.90
2019-03-27T02:30:10.407Z,4.70
2019-03-27T02:33:01.988Z,4.70
2019-03-27T02:35:42.397Z,4.70
2019-03-27T02:38:24.894Z,4.60
2019-03-27T02:41:04.601Z,4.40
2019-03-27T02:43:49.199Z,4.30
2019-03-27T02:46:31.767Z,4.30
2019-03-27T02:49:20.197Z,4.20
2019-03-27T02:51:59.135Z,4.00
2019-03-27T02:54:38.719Z,4.10
2019-03-27T02:57:27.859Z,4.00
2019-03-27T03:00:12.156Z,3.90
2019-03-27T03:02:55.270Z,3.80
2019-03-27T03:05:44.136Z,3.90
2019-03-27T03:08:20.691Z,3.90
2019-03-27T03:11:09.370Z,3.80
2019-03-27T03:13:56.521Z,3.90
2019-03-27T03:16:41.290Z,4.00
2019-03-27T03:19:19.760Z,4.00
2019-03-27T03:22:02.749Z,4.10
2019-03-27T03:24:44.579Z,4.10
2019-03-27T03:27:33.301Z,4.20
2019-03-27T03:30:13.801Z,4.20
2019-03-27T03:33:03.297Z,4.20
2019-03-27T03:35:43.009Z,4.20
2019-03-27T03:38:18.216Z,4.20
2019-03-27T03:40:52.008Z,4.20
2019-03-27T03:43:47.506Z,4.20
2019-03-27T03:46:35.839Z,4.00
2019-03-27T03:49:14.472Z,4.00
2019-03-27T03:51:52.765Z,4.00
2019-03-27T03:54:42.600Z,4.00
2019-03-27T03:57:25.316Z,3.90
2019-03-27T04:00:07.778Z,3.80
2019-03-27T04:02:50.321Z,3.90
2019-03-27T04:05:35.540Z,3.80
2019-03-27T04:08:22.778Z,3.80
2019-03-27T04:11:14.000Z,3.70
2019-03-27T04:13:52.833Z,3.60
2019-03-27T04:16:45.298Z,3.60
2019-03-27T04:19:23.764Z,3.50
2019-03-27T04:22:01.671Z,3.40
2019-03-27T04:24:43.386Z,3.40
2019-03-27T04:27:49.641Z,3.30
2019-03-27T04:30:20.627Z,3.20
2019-03-27T04:32:58.726Z,3.10
2019-03-27T04:35:36.171Z,3.10
2019-03-27T04:38:11.434Z,3.20
2019-03-27T04:40:45.931Z,2.90
2019-03-27T04:43:31.983Z,2.90
2019-03-27T04:45:59.596Z,2.90
2019-03-27T04:48:35.557Z,2.80
2019-03-27T04:51:08.933Z,2.80
2019-03-27T04:54:00.989Z,2.90
2019-03-27T04:56:36.222Z,2.90
2019-03-27T04:59:11.167Z,3.00
2019-03-27T05:01:49.266Z,3.00
2019-03-27T05:04:17.281Z,3.10
2019-03-27T05:06:58.509Z,3.20
2019-03-27T05:09:50.000Z,3.20
2019-03-27T05:12:30.078Z,3.20
2019-03-27T05:15:18.218Z,3.30
2019-03-27T05:17:56.332Z,3.40
2019-03-27T05:20:45.116Z,3.40
2019-03-27T05:23:26.125Z,3.50
2019-03-27T05:26:04.268Z,3.50
2019-03-27T05:28:52.940Z,3.60
2019-03-27T05:31:31.367Z,3.60
2019-03-27T05:34:19.695Z,3.60
2019-03-27T05:37:09.673Z,3.60
2019-03-27T05:39:49.723Z,3.60
2019-03-27T05:42:38.071Z,3.70
2019-03-27T05:45:28.482Z,3.70
2019-03-27T05:48:00.225Z,3.70
2019-03-27T05:50:58.363Z,3.80
2019-03-27T05:53:30.984Z,3.80
2019-03-27T05:56:25.066Z,3.80
2019-03-27T05:59:00.319Z,3.70
2019-03-27T06:01:38.525Z,3.70
2019-03-27T06:04:27.927Z,3.80
2019-03-27T06:07:17.783Z,3.80
2019-03-27T06:09:56.712Z,3.80
2019-03-27T06:12:42.591Z,3.80
2019-03-27T06:15:23.055Z,3.80
2019-03-27T06:18:12.960Z,3.80
2019-03-27T06:20:56.070Z,3.80
2019-03-27T06:23:42.165Z,3.70
2019-03-27T06:26:20.956Z,3.70
2019-03-27T06:29:15.636Z,3.70
2019-03-27T06:31:54.144Z,3.60
2019-03-27T06:34:31.491Z,3.70
2019-03-27T06:37:22.293Z,3.80
2019-03-27T06:40:00.508Z,3.80
2019-03-27T06:42:46.096Z,3.90
2019-03-27T06:45:26.949Z,4.00
2019-03-27T06:48:26.207Z,4.20
2019-03-27T06:50:57.091Z,4.40
2019-03-27T06:53:41.244Z,4.50
2019-03-27T06:56:22.154Z,4.70
2019-03-27T06:59:04.805Z,4.90
2019-03-27T07:01:46.312Z,5.10
2019-03-27T07:04:34.868Z,5.40
2019-03-27T07:07:16.477Z,5.50
2019-03-27T07:09:58.980Z,5.70
2019-03-27T07:12:40.874Z,5.90
2019-03-27T07:15:24.310Z,6.10
2019-03-27T07:18:13.984Z,6.20
2019-03-27T07:20:52.440Z,6.30
2019-03-27T07:23:30.940Z,6.40
2019-03-27T07:26:28.191Z,6.50
2019-03-27T07:29:08.462Z,6.40
2019-03-27T07:31:46.834Z,6.40
2019-03-27T07:34:30.817Z,6.60
2019-03-27T07:37:36.753Z,6.80
2019-03-27T07:40:03.173Z,6.90
2019-03-27T07:42:44.875Z,6.90
2019-03-27T07:45:30.360Z,6.80
2019-03-27T07:48:16.918Z,7.00
2019-03-27T07:50:58.033Z,7.10
2019-03-27T07:53:46.511Z,7.20
2019-03-27T07:56:44.067Z,7.40
2019-03-27T07:59:14.885Z,7.50
2019-03-27T08:01:52.893Z,7.60
2019-03-27T08:04:44.725Z,7.70
2019-03-27T08:07:27.074Z,7.70
2019-03-27T08:10:04.895Z,7.70
2019-03-27T08:12:52.568Z,7.70
2019-03-27T08:15:34.411Z,7.60
2019-03-27T08:18:22.809Z,7.80
2019-03-27T08:21:07.471Z,7.90
2019-03-27T08:23:48.441Z,8.10
2019-03-27T08:26:40.466Z,8.20
2019-03-27T08:29:20.836Z,8.40
2019-03-27T08:31:59.967Z,8.50
2019-03-27T08:34:41.076Z,8.70
2019-03-27T08:37:20.275Z,8.70
2019-03-27T08:39:59.122Z,8.70
2019-03-27T08:42:47.443Z,8.90
2019-03-27T08:45:35.790Z,8.80
2019-03-27T08:48:32.234Z,8.70
2019-03-27T08:52:21.147Z,9.00
2019-03-27T08:53:30.836Z,9.20
2019-03-27T08:56:15.005Z,9.40
2019-03-27T08:58:49.099Z,9.20
2019-03-27T09:01:29.058Z,9.30
2019-03-27T09:04:37.058Z,9.30
2019-03-27T09:07:16.936Z,9.60
2019-03-27T09:10:14.378Z,9.80
2019-03-27T09:12:57.210Z,9.90
2019-03-27T09:15:54.030Z,9.90
2019-03-27T09:18:32.050Z,9.80
2019-03-27T09:21:05.026Z,10.00
2019-03-27T09:23:45.968Z,10.00
2019-03-27T09:26:28.870Z,10.10
2019-03-27T09:29:19.008Z,10.40
2019-03-27T09:32:01.359Z,10.40
2019-03-27T09:34:40.667Z,10.30
2019-03-27T09:37:25.532Z,10.40
2019-03-27T09:40:47.703Z,10.50
2019-03-27T09:42:53.888Z,10.50
2019-03-27T09:45:24.935Z,10.50
2019-03-27T09:48:18.851Z,10.50
2019-03-27T09:50:49.069Z,10.60
2019-03-27T09:53:25.428Z,10.60
2019-03-27T09:55:56.588Z,10.60
2019-03-27T09:58:52.260Z,10.90
2019-03-27T10:01:31.847Z,10.90
2019-03-27T10:04:05.509Z,11.10
2019-03-27T10:06:38.581Z,10.90
2019-03-27T10:09:12.951Z,11.20
2019-03-27T10:12:10.760Z,11.60
2019-03-27T10:14:51.647Z,11.70
2019-03-27T10:17:21.712Z,11.70
2019-03-27T10:20:13.691Z,11.70
2019-03-27T10:22:38.998Z,11.40
2019-03-27T10:25:34.743Z,11.40
2019-03-27T10:28:14.117Z,11.60
2019-03-27T10:30:55.915Z,11.60
2019-03-27T10:33:27.463Z,11.70
2019-03-27T10:36:05.228Z,11.80
2019-03-27T10:38:31.943Z,11.80
2019-03-27T10:41:06.021Z,11.80
2019-03-27T10:44:08.292Z,11.80
2019-03-27T10:46:53.798Z,11.70
2019-03-27T10:49:37.949Z,11.40
2019-03-27T10:52:14.047Z,11.40
2019-03-27T10:55:03.932Z,11.20
2019-03-27T10:57:40.015Z,11.30
2019-03-27T11:00:26.191Z,11.30
2019-03-27T11:02:57.033Z,11.20
2019-03-27T11:05:51.710Z,11.40
2019-03-27T11:08:24.966Z,11.30
2019-03-27T11:11:14.558Z,11.20
2019-03-27T11:13:34.569Z,11.30
2019-03-27T11:16:19.709Z,11.50
2019-03-27T11:18:49.112Z,11.50
2019-03-27T11:21:23.962Z,11.50
2019-03-27T11:24:13.477Z,11.50
2019-03-27T11:27:20.773Z,11.40
2019-03-27T11:29:37.138Z,11.50
2019-03-27T11:32:27.977Z,11.70
2019-03-27T11:34:58.474Z,11.60
2019-03-27T11:37:54.972Z,11.70
2019-03-27T11:40:29.010Z,11.70
2019-03-27T11:43:29.661Z,11.60
2019-03-27T11:47:11.935Z,11.70
2019-03-27T11:48:39.598Z,11.70
2019-03-27T11:51:33.919Z,11.50
2019-03-27T11:53:52.767Z,11.40
2019-03-27T11:56:38.331Z,11.50
2019-03-27T11:59:12.194Z,11.50
2019-03-27T12:01:46.155Z,11.70
2019-03-27T12:04:37.682Z,11.50
2019-03-27T12:07:24.186Z,11.50
2019-03-27T12:09:48.113Z,11.50
2019-03-27T12:12:20.883Z,11.70
2019-03-27T12:15:15.668Z,11.90
2019-03-27T12:17:45.972Z,11.90
2019-03-27T12:20:16.955Z,11.90
2019-03-27T12:22:57.661Z,11.90
2019-03-27T12:25:30.631Z,11.90
2019-03-27T12:28:10.763Z,12.00
2019-03-27T12:30:43.814Z,12.10
2019-03-27T12:33:32.956Z,12.10
2019-03-27T12:36:04.675Z,12.00
2019-03-27T12:39:58.609Z,11.90
2019-03-27T12:41:26.553Z,11.80
2019-03-27T12:44:02.547Z,11.80
2019-03-27T12:46:42.672Z,11.90
2019-03-27T12:49:21.695Z,11.90
2019-03-27T12:52:05.407Z,12.00
2019-03-27T12:54:39.554Z,12.10
2019-03-27T12:57:53.180Z,12.20
2019-03-27T13:00:18.110Z,12.50
2019-03-27T13:03:06.841Z,12.60
2019-03-27T13:05:48.527Z,12.80
2019-03-27T13:11:10.909Z,12.90
2019-03-27T13:14:02.833Z,13.10
2019-03-27T13:16:33.567Z,13.20
2019-03-27T13:19:39.189Z,13.20
2019-03-27T13:22:38.524Z,12.90
2019-03-27T13:25:13.278Z,12.80
2019-03-27T13:27:47.396Z,12.70
2019-03-27T13:30:34.107Z,12.50
2019-03-27T13:33:08.925Z,12.60
2019-03-27T13:35:42.791Z,12.80
2019-03-27T13:38:36.478Z,12.80
2019-03-27T13:41:24.904Z,13.10
2019-03-27T13:44:18.417Z,13.00
2019-03-27T13:46:50.361Z,13.20
2019-03-27T13:49:42.413Z,13.10
2019-03-27T13:52:05.144Z,13.00
2019-03-27T13:54:43.262Z,12.90
2019-03-27T13:57:21.796Z,12.90
2019-03-27T13:59:55.464Z,13.00
2019-03-27T14:02:35.307Z,13.40
2019-03-27T14:05:43.354Z,13.40
2019-03-27T14:08:19.822Z,13.20
2019-03-27T14:10:52.667Z,13.30
2019-03-27T14:13:25.342Z,13.20
2019-03-27T14:15:57.526Z,13.00
2019-03-27T14:18:44.594Z,13.00
2019-03-27T14:21:25.552Z,13.00
2019-03-27T14:24:05.707Z,13.10
2019-03-27T14:26:55.239Z,13.00
2019-03-27T14:29:26.223Z,12.80
2019-03-27T14:32:09.709Z,13.10
2019-03-27T14:34:59.402Z,12.90
2019-03-27T14:37:39.475Z,12.70
2019-03-27T14:40:11.752Z,12.70
2019-03-27T14:42:52.140Z,12.90
2019-03-27T14:45:52.061Z,13.00
2019-03-27T14:48:25.098Z,13.20
2019-03-27T14:51:18.109Z,13.30
2019-03-27T14:54:00.440Z,13.30
2019-03-27T14:56:34.319Z,13.20
2019-03-27T14:59:23.875Z,13.20
2019-03-27T15:02:01.855Z,13.10
2019-03-27T15:04:42.660Z,13.10
2019-03-27T15:07:32.805Z,13.20
2019-03-27T15:10:08.970Z,13.00
2019-03-27T15:12:42.810Z,12.90
2019-03-27T15:15:31.666Z,12.80
2019-03-27T15:18:02.840Z,12.70
2019-03-27T15:20:45.847Z,12.90
2019-03-27T15:23:34.233Z,13.00
2019-03-27T15:26:05.279Z,12.80
2019-03-27T15:28:40.529Z,12.60
2019-03-27T15:31:25.905Z,12.40
2019-03-27T15:34:19.120Z,12.40
2019-03-27T15:36:36.367Z,12.50
2019-03-27T15:39:25.387Z,12.50
2019-03-27T15:41:56.235Z,12.60
2019-03-27T15:44:35.688Z,12.60
2019-03-27T15:47:06.676Z,12.50
2019-03-27T15:52:35.439Z,12.40
2019-03-27T15:54:56.207Z,12.40
2019-03-27T15:57:28.090Z,12.40
2019-03-27T16:00:01.991Z,12.40
2019-03-27T16:02:54.089Z,12.40
2019-03-27T16:05:26.159Z,12.40
2019-03-27T16:08:02.705Z,12.40
2019-03-27T16:12:36.860Z,12.50
2019-03-27T16:13:18.173Z,12.50
2019-03-27T16:15:58.633Z,12.50
2019-03-27T16:18:50.608Z,12.50
2019-03-27T16:21:11.771Z,12.40
2019-03-27T16:23:48.902Z,12.40
2019-03-27T16:27:03.833Z,12.40
2019-03-27T16:29:43.931Z,12.50
2019-03-27T16:32:46.814Z,12.30
2019-03-27T16:35:23.034Z,12.30
2019-03-27T16:37:56.301Z,12.30
2019-03-27T16:40:59.262Z,12.20
2019-03-27T16:43:47.095Z,12.30
2019-03-27T16:46:36.151Z,12.20
2019-03-27T16:49:29.624Z,12.20
2019-03-27T16:52:20.698Z,12.10
2019-03-27T16:54:46.896Z,12.10
2019-03-27T16:57:30.937Z,12.10
2019-03-27T17:00:09.884Z,11.90
2019-03-27T17:02:57.096Z,11.90
2019-03-27T17:05:28.541Z,11.90
2019-03-27T17:08:11.052Z,11.80
2019-03-27T17:10:46.562Z,11.80
2019-03-27T17:13:23.769Z,11.80
2019-03-27T17:16:00.748Z,11.80
2019-03-27T17:18:33.260Z,11.70
2019-03-27T17:21:28.341Z,11.70
2019-03-27T17:24:04.075Z,11.70
2019-03-27T17:26:50.650Z,11.80
2019-03-27T17:29:26.660Z,11.80
2019-03-27T17:31:57.694Z,11.80
2019-03-27T17:34:35.757Z,11.70
2019-03-27T17:37:09.794Z,11.60
2019-03-27T17:40:03.885Z,11.70
2019-03-27T17:42:42.671Z,11.60
2019-03-27T17:45:22.035Z,11.60
2019-03-27T17:48:10.427Z,11.60
2019-03-27T17:50:43.959Z,11.50
2019-03-27T17:53:30.711Z,11.50
2019-03-27T17:56:09.286Z,11.30
2019-03-27T17:58:47.547Z,11.30
2019-03-27T18:01:20.643Z,11.20
2019-03-27T18:03:58.944Z,11.10
2019-03-27T18:06:29.938Z,11.10
2019-03-27T18:09:13.749Z,11.00
2019-03-27T18:11:47.054Z,11.00
2019-03-27T18:14:20.308Z,10.90
2019-03-27T18:16:53.404Z,10.70
2019-03-27T18:19:33.897Z,10.60
2019-03-27T18:22:40.253Z,10.50
2019-03-27T18:25:01.957Z,10.30
2019-03-27T18:28:10.068Z,10.30
2019-03-27T18:30:46.316Z,10.20
2019-03-27T18:34:03.716Z,10.10
2019-03-27T18:36:31.628Z,10.20
2019-03-27T18:39:42.330Z,10.20
2019-03-27T18:42:05.729Z,10.10
2019-03-27T18:44:41.220Z,9.90
2019-03-27T18:47:19.589Z,9.80
2019-03-27T18:49:54.962Z,9.60
2019-03-27T18:52:38.089Z,9.40
2019-03-27T18:55:00.419Z,9.30
2019-03-27T18:57:33.593Z,9.20
2019-03-27T19:00:35.774Z,9.00
2019-03-27T19:04:18.938Z,9.00
2019-03-27T19:06:31.810Z,8.80
2019-03-27T19:09:30.019Z,8.70
2019-03-27T19:12:30.994Z,8.50
2019-03-27T19:15:18.215Z,8.50
2019-03-27T19:17:43.481Z,8.40
2019-03-27T19:20:46.333Z,8.30
2019-03-27T19:23:31.968Z,8.10
2019-03-27T19:26:24.864Z,8.10
2019-03-27T19:29:05.470Z,7.90
2019-03-27T19:31:45.340Z,7.80
2019-03-27T19:34:20.987Z,7.70
2019-03-27T19:37:14.568Z,7.60
2019-03-27T19:39:27.575Z,7.50
2019-03-27T19:42:00.872Z,7.40
2019-03-27T19:44:57.626Z,7.30
2019-03-27T19:47:47.716Z,7.30
2019-03-27T19:50:10.029Z,7.30
2019-03-27T19:52:43.948Z,7.20
2019-03-27T19:55:23.861Z,7.10
2019-03-27T19:57:53.466Z,7.00
2019-03-27T20:03:25.903Z,6.80
2019-03-27T20:06:00.930Z,6.80
2019-03-27T20:08:41.291Z,6.80
2019-03-27T20:11:41.365Z,6.80
2019-03-27T20:16:47.351Z,6.60
2019-03-27T20:19:21.304Z,6.50
2019-03-27T20:22:19.807Z,6.50
2019-03-27T20:24:57.134Z,6.40
2019-03-27T20:27:51.057Z,6.20
2019-03-27T20:30:26.686Z,6.20
2019-03-27T20:33:04.464Z,6.10
2019-03-27T20:35:37.179Z,6.00
2019-03-27T20:38:20.255Z,5.90
2019-03-27T20:41:04.215Z,5.90
2019-03-27T20:43:35.152Z,5.90
2019-03-27T20:46:25.379Z,6.10
2019-03-27T20:49:12.271Z,6.10
2019-03-27T20:54:27.956Z,6.00
2019-03-27T20:57:23.736Z,6.00
2019-03-27T21:00:07.964Z,5.90
2019-03-27T21:02:42.819Z,5.90
2019-03-27T21:05:36.490Z,5.70
2019-03-27T21:08:18.942Z,5.70
2019-03-27T21:10:53.528Z,5.60
2019-03-27T21:13:42.274Z,5.60
2019-03-27T21:16:38.597Z,5.60
2019-03-27T21:19:00.389Z,5.50
2019-03-27T21:21:49.761Z,5.50
2019-03-27T21:24:21.925Z,5.30
2019-03-27T21:27:00.560Z,5.30
2019-03-27T21:29:41.022Z,5.30
2019-03-27T21:32:29.919Z,5.20
2019-03-27T21:35:19.388Z,5.10
2019-03-27T21:38:15.410Z,5.20
2019-03-27T21:40:40.167Z,5.00
2019-03-27T21:43:13.144Z,4.90
2019-03-27T21:46:04.266Z,4.90
2019-03-27T21:48:24.928Z,4.90
2019-03-27T21:51:14.955Z,4.70
2019-03-27T21:54:06.104Z,4.70
2019-03-27T21:56:58.247Z,4.60
2019-03-27T21:59:50.326Z,4.60
2019-03-27T22:02:39.812Z,4.50
2019-03-27T22:05:32.363Z,4.50
2019-03-27T22:08:19.318Z,4.50
2019-03-27T22:11:03.571Z,4.50
2019-03-27T22:13:28.083Z,4.40
2019-03-27T22:16:06.232Z,4.40
2019-03-27T22:18:37.230Z,4.30
2019-03-27T22:21:33.608Z,4.20
2019-03-27T22:24:20.688Z,4.20
2019-03-27T22:27:12.718Z,4.30
2019-03-27T22:29:56.388Z,4.30
2019-03-27T22:32:23.405Z,4.40
2019-03-27T22:35:04.716Z,4.50
2019-03-27T22:37:40.453Z,4.50
2019-03-27T22:40:25.591Z,4.50
2019-03-27T22:42:50.217Z,4.60
2019-03-27T22:45:30.357Z,4.60
2019-03-27T22:48:05.604Z,4.80
2019-03-27T22:50:36.873Z,4.90
2019-03-27T22:53:26.339Z,4.90
2019-03-27T22:56:12.359Z,4.90
2019-03-27T22:58:38.251Z,4.90
2019-03-27T23:01:22.016Z,5.00
2019-03-27T23:04:03.629Z,5.00
2019-03-27T23:06:42.312Z,5.10
2019-03-27T23:09:24.706Z,5.20
2019-03-27T23:11:57.065Z,5.20
2019-03-27T23:14:33.650Z,5.20
2019-03-27T23:17:07.762Z,5.20
2019-03-27T23:20:02.139Z,5.20
2019-03-27T23:22:49.383Z,5.20
2019-03-27T23:25:13.456Z,5.20
2019-03-27T23:27:54.684Z,5.20
2019-03-27T23:30:52.290Z,5.30
2019-03-27T23:33:26.137Z,5.20
2019-03-27T23:36:16.863Z,5.30
2019-03-27T23:38:40.979Z,5.30
2019-03-27T23:41:25.028Z,5.20
2019-03-27T23:44:20.770Z,5.20
2019-03-27T23:47:03.037Z,5.20
2019-03-27T23:50:00.962Z,5.20
2019-03-27T23:53:02.179Z,5.20
2019-03-27T23:55:55.870Z,5.20
2019-03-27T23:58:32.135Z,5.10
